createdAt,value
2019-01-15T00:02:28.826Z,1.97
2019-01-15T00:04:59.976Z,2.07
2019-01-15T00:07:31.157Z,2.47
2019-01-15T00:10:02.183Z,1.92
2019-01-15T00:12:32.979Z,2.17
2019-01-15T00:15:04.018Z,1.80
2019-01-15T00:17:34.624Z,2.00
2019-01-15T00:20:06.385Z,1.67
2019-01-15T00:22:37.279Z,2.22
2019-01-15T00:25:08.198Z,2.13
2019-01-15T00:27:39.353Z,1.80
2019-01-15T00:30:12.737Z,1.98
2019-01-15T00:32:43.357Z,2.23
2019-01-15T00:35:14.342Z,2.43
2019-01-15T00:37:45.020Z,2.50
2019-01-15T00:40:17.241Z,2.73
2019-01-15T00:42:47.941Z,1.90
2019-01-15T00:45:18.566Z,2.33
2019-01-15T00:47:49.252Z,2.03
2019-01-15T00:50:20.247Z,1.97
2019-01-15T00:52:51.100Z,2.77
2019-01-15T00:55:22.128Z,2.13
2019-01-15T00:57:53.078Z,2.33
2019-01-15T01:00:24.349Z,2.00
2019-01-15T01:02:54.981Z,2.43
2019-01-15T01:05:25.661Z,2.03
2019-01-15T01:07:56.643Z,2.83
2019-01-15T01:10:27.256Z,3.00
2019-01-15T01:12:57.931Z,2.17
2019-01-15T01:15:29.168Z,2.02
2019-01-15T01:18:00.407Z,2.07
2019-01-15T01:20:33.086Z,1.70
2019-01-15T01:23:03.743Z,2.53
2019-01-15T01:25:34.340Z,1.90
2019-01-15T01:28:05.321Z,2.23
2019-01-15T01:30:36.468Z,2.20
2019-01-15T01:33:07.193Z,2.10
2019-01-15T01:35:38.234Z,2.17
2019-01-15T01:38:09.227Z,1.95
2019-01-15T01:40:39.904Z,2.30
2019-01-15T01:43:10.671Z,2.40
2019-01-15T01:45:41.230Z,2.37
2019-01-15T01:48:11.989Z,2.00
2019-01-15T01:50:42.683Z,2.34
2019-01-15T01:53:13.517Z,2.00
2019-01-15T01:55:44.457Z,2.00
2019-01-15T01:58:15.446Z,1.93
2019-01-15T02:00:46.253Z,2.57
2019-01-15T02:03:17.514Z,2.47
2019-01-15T02:05:48.617Z,2.70
2019-01-15T02:08:19.309Z,1.83
2019-01-15T02:10:49.981Z,2.43
2019-01-15T02:13:20.993Z,2.40
2019-01-15T02:15:52.188Z,2.47
2019-01-15T02:18:22.792Z,2.00
2019-01-15T02:20:53.823Z,2.13
2019-01-15T02:23:24.470Z,1.93
2019-01-15T02:25:55.097Z,2.43
2019-01-15T02:28:25.765Z,2.07
2019-01-15T02:30:56.645Z,1.80
2019-01-15T02:33:27.626Z,1.93
2019-01-15T02:35:58.429Z,1.90
2019-01-15T02:38:29.157Z,2.13
2019-01-15T02:41:00.235Z,2.07
2019-01-15T02:43:31.403Z,2.23
2019-01-15T02:46:02.327Z,2.05
2019-01-15T02:48:33.158Z,1.80
2019-01-15T02:51:03.945Z,2.15
2019-01-15T02:53:34.581Z,1.63
2019-01-15T02:56:05.247Z,2.37
2019-01-15T02:58:35.908Z,2.57
2019-01-15T03:01:06.570Z,2.25
2019-01-15T03:03:37.279Z,1.80
2019-01-15T03:06:07.991Z,2.00
2019-01-15T03:08:38.876Z,2.13
2019-01-15T03:11:10.062Z,2.00
2019-01-15T03:13:40.731Z,1.97
2019-01-15T03:16:11.423Z,1.77
2019-01-15T03:18:42.052Z,2.13
2019-01-15T03:21:12.757Z,1.70
2019-01-15T03:23:43.668Z,2.13
2019-01-15T03:26:14.322Z,2.13
2019-01-15T03:28:45.366Z,1.80
2019-01-15T03:31:15.996Z,1.77
2019-01-15T03:33:46.914Z,1.70
2019-01-15T03:36:17.655Z,1.97
2019-01-15T03:38:48.334Z,2.40
2019-01-15T03:41:19.024Z,1.93
2019-01-15T03:43:49.711Z,1.87
2019-01-15T03:46:20.333Z,2.37
2019-01-15T03:48:50.945Z,2.10
2019-01-15T03:51:21.916Z,1.80
2019-01-15T03:53:52.543Z,1.73
2019-01-15T03:56:23.177Z,1.97
2019-01-15T03:58:55.206Z,1.98
2019-01-15T04:01:26.138Z,1.30
2019-01-15T04:03:56.850Z,2.10
2019-01-15T04:06:27.530Z,1.80
2019-01-15T04:08:59.027Z,1.40
2019-01-15T04:11:30.037Z,1.70
2019-01-15T04:14:01.344Z,2.10
2019-01-15T04:16:32.355Z,2.60
2019-01-15T04:19:02.990Z,1.67
2019-01-15T04:21:33.686Z,1.70
2019-01-15T04:24:04.335Z,1.93
2019-01-15T04:26:34.969Z,1.65
2019-01-15T04:29:05.708Z,2.07
2019-01-15T04:31:36.332Z,1.60
2019-01-15T04:34:07.261Z,2.10
2019-01-15T04:36:37.931Z,2.10
2019-01-15T04:39:09.706Z,2.00
2019-01-15T04:41:40.643Z,1.67
2019-01-15T04:44:11.921Z,1.63
2019-01-15T04:46:43.180Z,1.57
2019-01-15T04:49:14.129Z,2.22
2019-01-15T04:51:45.228Z,1.57
2019-01-15T04:54:15.971Z,2.13
2019-01-15T04:56:46.900Z,1.92
2019-01-15T04:59:17.849Z,1.70
2019-01-15T05:01:48.888Z,1.77
2019-01-15T05:04:19.558Z,2.27
2019-01-15T05:06:50.300Z,2.20
2019-01-15T05:09:20.952Z,1.77
2019-01-15T05:11:51.752Z,1.83
2019-01-15T05:14:22.521Z,1.37
2019-01-15T05:16:53.499Z,1.60
2019-01-15T05:19:24.181Z,1.77
2019-01-15T05:21:55.281Z,1.43
2019-01-15T05:24:26.209Z,3.13
2019-01-15T05:26:56.843Z,3.30
2019-01-15T05:29:27.841Z,1.77
2019-01-15T05:31:58.520Z,1.57
2019-01-15T05:34:29.267Z,1.25
2019-01-15T05:37:00.363Z,1.47
2019-01-15T05:39:31.954Z,0.82
2019-01-15T05:42:02.558Z,1.17
2019-01-15T05:44:33.624Z,1.50
2019-01-15T05:47:04.403Z,2.03
2019-01-15T05:49:35.108Z,1.70
2019-01-15T05:52:05.876Z,1.23
2019-01-15T05:54:37.251Z,1.67
2019-01-15T05:57:07.917Z,1.40
2019-01-15T05:59:38.572Z,1.63
2019-01-15T06:02:09.175Z,1.27
2019-01-15T06:04:39.695Z,1.00
2019-01-15T06:07:10.701Z,1.40
2019-01-15T06:09:41.753Z,1.30
2019-01-15T06:12:12.877Z,1.62
2019-01-15T06:14:43.589Z,1.50
2019-01-15T06:17:14.871Z,1.40
2019-01-15T06:19:46.241Z,1.45
2019-01-15T06:22:17.207Z,1.50
2019-01-15T06:24:47.846Z,1.40
2019-01-15T06:27:19.499Z,1.00
2019-01-15T06:29:50.220Z,1.47
2019-01-15T06:32:20.831Z,1.20
2019-01-15T06:34:51.739Z,1.10
2019-01-15T06:37:22.393Z,0.98
2019-01-15T06:39:52.990Z,1.20
2019-01-15T06:42:23.605Z,1.30
2019-01-15T06:44:54.557Z,1.23
2019-01-15T06:47:25.528Z,1.00
2019-01-15T06:49:56.412Z,1.30
2019-01-15T06:52:27.079Z,1.10
2019-01-15T06:54:57.719Z,1.00
2019-01-15T06:57:30.748Z,1.63
2019-01-15T07:00:01.748Z,1.13
2019-01-15T07:02:32.896Z,1.00
2019-01-15T07:05:03.683Z,1.10
2019-01-15T07:07:34.762Z,1.80
2019-01-15T07:10:07.678Z,1.50
2019-01-15T07:12:38.649Z,1.53
2019-01-15T07:15:09.641Z,1.53
2019-01-15T07:17:40.638Z,1.10
2019-01-15T07:20:12.873Z,1.10
2019-01-15T07:22:43.935Z,1.43
2019-01-15T07:25:15.943Z,1.10
2019-01-15T07:27:46.661Z,1.13
2019-01-15T07:30:34.211Z,1.50
2019-01-15T07:33:05.167Z,1.30
2019-01-15T07:35:35.836Z,1.30
2019-01-15T07:38:06.558Z,1.47
2019-01-15T07:40:37.497Z,1.37
2019-01-15T07:43:09.054Z,1.57
2019-01-15T07:45:40.022Z,1.80
2019-01-15T07:48:11.085Z,1.33
2019-01-15T07:50:42.310Z,1.97
2019-01-15T07:53:13.452Z,2.83
2019-01-15T07:55:44.442Z,2.10
2019-01-15T07:58:15.436Z,2.06
2019-01-15T08:00:46.215Z,2.10
2019-01-15T08:03:17.755Z,1.92
2019-01-15T08:05:48.685Z,2.30
2019-01-15T08:08:19.838Z,1.70
2019-01-15T08:10:56.798Z,1.83
2019-01-15T08:13:23.330Z,1.90
2019-01-15T08:15:54.052Z,2.17
2019-01-15T08:18:25.034Z,2.40
2019-01-15T08:20:55.653Z,1.87
2019-01-15T08:23:26.677Z,2.10
2019-01-15T08:25:57.848Z,2.60
2019-01-15T08:28:28.888Z,2.73
2019-01-15T08:30:59.559Z,2.77
2019-01-15T08:33:30.501Z,2.60
2019-01-15T08:36:01.430Z,3.10
2019-01-15T08:38:32.851Z,3.33
2019-01-15T08:41:03.766Z,3.07
2019-01-15T08:43:34.463Z,3.50
2019-01-15T08:46:05.194Z,3.97
2019-01-15T08:48:36.510Z,4.17
2019-01-15T08:51:09.153Z,4.33
2019-01-15T08:53:40.848Z,5.83
2019-01-15T08:56:12.063Z,4.80
2019-01-15T08:58:42.959Z,4.70
2019-01-15T09:01:13.917Z,5.60
2019-01-15T09:03:44.921Z,7.40
2019-01-15T09:06:16.955Z,7.80
2019-01-15T09:08:47.687Z,8.57
2019-01-15T09:11:18.380Z,9.50
2019-01-15T09:13:49.573Z,10.20
2019-01-15T09:16:20.568Z,10.03
2019-01-15T09:18:51.303Z,10.03
2019-01-15T09:21:22.283Z,10.73
2019-01-15T09:23:52.982Z,10.25
2019-01-15T09:26:24.006Z,9.77
2019-01-15T09:28:54.965Z,10.12
2019-01-15T09:31:25.689Z,11.93
2019-01-15T09:33:56.639Z,11.13
2019-01-15T09:36:27.913Z,12.07
2019-01-15T09:38:58.618Z,11.22
2019-01-15T09:41:29.331Z,11.97
2019-01-15T09:44:00.630Z,11.90
2019-01-15T09:46:33.045Z,13.80
2019-01-15T09:49:03.791Z,13.50
2019-01-15T09:51:34.478Z,13.90
2019-01-15T09:54:06.193Z,14.50
2019-01-15T09:56:37.487Z,14.77
2019-01-15T09:59:08.668Z,15.27
2019-01-15T10:01:40.349Z,13.20
2019-01-15T10:04:11.591Z,13.17
2019-01-15T10:06:43.117Z,12.55
2019-01-15T10:09:15.316Z,14.60
2019-01-15T10:11:46.561Z,14.57
2019-01-15T10:14:17.979Z,15.47
2019-01-15T10:16:49.596Z,14.97
2019-01-15T10:19:21.189Z,16.30
2019-01-15T10:21:52.516Z,14.93
2019-01-15T10:24:25.996Z,14.57
2019-01-15T10:26:58.242Z,14.75
2019-01-15T10:29:30.191Z,16.33
2019-01-15T10:32:44.385Z,14.73
2019-01-15T10:35:57.238Z,16.12
2019-01-15T10:38:30.487Z,16.32
2019-01-15T10:41:01.974Z,15.43
2019-01-15T10:43:34.928Z,17.13
2019-01-15T10:46:07.565Z,16.40
2019-01-15T10:48:39.058Z,16.90
2019-01-15T10:51:10.695Z,16.77
2019-01-15T10:53:42.242Z,17.13
2019-01-15T10:56:13.820Z,17.37
2019-01-15T10:58:45.039Z,16.73
2019-01-15T11:01:16.367Z,17.48
2019-01-15T11:03:48.021Z,16.73
2019-01-15T11:06:19.279Z,16.63
2019-01-15T11:08:50.529Z,16.90
2019-01-15T11:11:22.071Z,17.47
2019-01-15T11:13:53.771Z,18.17
2019-01-15T11:16:25.190Z,16.87
2019-01-15T11:18:56.753Z,17.20
2019-01-15T11:21:28.467Z,17.75
2019-01-15T11:24:00.024Z,18.27
2019-01-15T11:26:31.406Z,17.57
2019-01-15T11:29:02.982Z,18.27
2019-01-15T11:31:34.208Z,18.57
2019-01-15T11:34:05.492Z,17.70
2019-01-15T11:36:36.747Z,18.20
2019-01-15T11:39:11.205Z,17.33
2019-01-15T11:41:42.686Z,18.97
2019-01-15T11:44:13.995Z,18.37
2019-01-15T11:46:45.183Z,18.33
2019-01-15T11:49:16.726Z,17.03
2019-01-15T11:51:48.680Z,17.60
2019-01-15T11:54:20.334Z,16.93
2019-01-15T11:56:51.892Z,17.33
2019-01-15T11:59:23.440Z,16.77
2019-01-15T12:02:22.225Z,17.10
2019-01-15T12:05:07.607Z,16.37
2019-01-15T12:07:57.043Z,17.10
2019-01-15T12:10:46.107Z,17.80
2019-01-15T12:13:48.464Z,17.80
2019-01-15T12:16:41.044Z,18.97
2019-01-15T12:19:31.475Z,18.10
2019-01-15T12:22:24.551Z,18.20
2019-01-15T12:25:12.802Z,19.47
2019-01-15T12:28:01.375Z,19.67
2019-01-15T12:31:04.329Z,18.97
2019-01-15T12:34:09.579Z,19.73
2019-01-15T12:36:57.866Z,19.40
2019-01-15T12:39:53.739Z,19.33
2019-01-15T12:42:50.129Z,19.33
2019-01-15T12:45:48.899Z,18.67
2019-01-15T12:48:37.893Z,18.67
2019-01-15T12:51:33.979Z,18.63
2019-01-15T12:54:40.411Z,17.52
2019-01-15T12:57:30.454Z,17.93
2019-01-15T13:00:29.320Z,16.33
2019-01-15T13:03:19.910Z,18.20
2019-01-15T13:06:10.146Z,17.70
2019-01-15T13:08:57.639Z,17.37
2019-01-15T13:11:59.495Z,17.73
2019-01-15T13:14:47.807Z,16.93
2019-01-15T13:17:37.509Z,17.00
2019-01-15T13:20:30.326Z,16.87
2019-01-15T13:23:24.148Z,16.93
2019-01-15T13:26:12.945Z,18.17
2019-01-15T13:29:15.580Z,16.35
2019-01-15T13:32:02.338Z,16.70
2019-01-15T13:34:55.177Z,15.27
2019-01-15T13:37:46.736Z,15.33
2019-01-15T13:40:42.447Z,15.03
2019-01-15T13:43:25.234Z,15.40
2019-01-15T13:46:12.329Z,15.60
2019-01-15T13:48:53.155Z,16.10
2019-01-15T13:51:42.422Z,16.70
2019-01-15T13:54:31.520Z,15.03
2019-01-15T13:57:31.099Z,14.30
2019-01-15T14:00:18.549Z,15.20
2019-01-15T14:03:20.650Z,13.87
2019-01-15T14:06:21.022Z,14.63
2019-01-15T14:09:18.932Z,14.40
2019-01-15T14:11:59.586Z,14.93
2019-01-15T14:14:48.294Z,14.23
2019-01-15T14:17:35.840Z,13.87
2019-01-15T14:20:32.586Z,15.10
2019-01-15T14:23:24.644Z,14.83
2019-01-15T14:26:13.328Z,14.40
2019-01-15T14:29:03.925Z,14.20
2019-01-15T14:31:59.927Z,13.63
2019-01-15T14:34:52.680Z,13.97
2019-01-15T14:37:42.622Z,12.50
2019-01-15T14:40:48.322Z,14.10
2019-01-15T14:43:49.850Z,13.03
2019-01-15T14:46:39.306Z,13.37
2019-01-15T14:49:28.219Z,12.03
2019-01-15T14:52:11.487Z,13.27
2019-01-15T14:55:00.256Z,12.50
2019-01-15T14:57:45.082Z,12.10
2019-01-15T15:00:47.499Z,11.77
2019-01-15T15:03:43.733Z,12.77
2019-01-15T15:06:32.379Z,12.93
2019-01-15T15:09:20.816Z,13.00
2019-01-15T15:12:13.505Z,12.40
2019-01-15T15:15:09.620Z,13.03
2019-01-15T15:18:04.696Z,11.93
2019-01-15T15:21:03.466Z,12.93
2019-01-15T15:23:50.842Z,12.07
2019-01-15T15:26:34.824Z,12.18
2019-01-15T15:29:37.180Z,10.47
2019-01-15T15:32:45.388Z,11.30
2019-01-15T15:35:33.723Z,12.00
2019-01-15T15:38:29.988Z,11.83
2019-01-15T15:41:18.617Z,10.23
2019-01-15T15:44:14.395Z,10.77
2019-01-15T15:47:13.266Z,10.77
2019-01-15T15:50:06.267Z,10.70
2019-01-15T15:52:54.856Z,10.77
2019-01-15T15:55:43.600Z,11.28
2019-01-15T15:58:32.203Z,11.27
2019-01-15T16:01:31.828Z,11.08
2019-01-15T16:04:33.397Z,11.80
2019-01-15T16:07:35.319Z,11.53
2019-01-15T16:10:26.988Z,12.17
2019-01-15T16:13:25.681Z,11.20
2019-01-15T16:24:09.426Z,12.30
2019-01-15T16:26:59.413Z,13.13
2019-01-15T16:29:48.121Z,13.53
2019-01-15T16:32:36.449Z,14.58
2019-01-15T16:35:29.793Z,13.27
2019-01-15T16:38:19.730Z,15.93
2019-01-15T16:41:11.752Z,14.77
2019-01-15T16:43:59.910Z,14.37
2019-01-15T16:47:08.086Z,15.37
2019-01-15T16:49:55.456Z,12.90
2019-01-15T16:52:43.972Z,14.60
2019-01-15T16:55:52.354Z,14.10
2019-01-15T16:58:42.282Z,14.77
2019-01-15T17:01:32.232Z,14.40
2019-01-15T17:04:21.064Z,15.00
2019-01-15T17:07:10.169Z,16.17
2019-01-15T17:09:53.575Z,15.20
2019-01-15T17:12:42.490Z,15.20
2019-01-15T17:15:50.668Z,14.97
2019-01-15T17:18:46.674Z,16.27
2019-01-15T17:21:35.939Z,16.13
2019-01-15T17:24:26.078Z,17.03
2019-01-15T17:27:19.492Z,16.17
2019-01-15T17:30:11.287Z,16.37
2019-01-15T17:33:00.094Z,16.77
2019-01-15T17:35:59.010Z,15.83
2019-01-15T17:39:01.777Z,15.63
2019-01-15T17:41:59.089Z,16.47
2019-01-15T17:44:39.072Z,16.00
2019-01-15T17:47:41.531Z,16.43
2019-01-15T17:50:39.882Z,17.17
2019-01-15T17:53:33.134Z,16.00
2019-01-15T17:56:21.781Z,16.90
2019-01-15T17:59:20.323Z,17.90
2019-01-15T18:02:13.682Z,18.60
2019-01-15T18:05:02.773Z,19.17
2019-01-15T18:08:07.005Z,18.95
2019-01-15T18:11:03.631Z,19.35
2019-01-15T18:13:52.225Z,19.73
2019-01-15T18:16:38.902Z,19.33
2019-01-15T18:19:44.168Z,19.92
2019-01-15T18:22:37.461Z,21.40
2019-01-15T18:25:43.177Z,20.60
2019-01-15T18:28:28.836Z,20.80
2019-01-15T18:31:22.206Z,20.27
2019-01-15T18:34:16.369Z,22.75
2019-01-15T18:37:05.251Z,21.80
2019-01-15T18:40:04.422Z,23.17
2019-01-15T18:42:52.570Z,23.63
2019-01-15T18:45:57.782Z,22.57
2019-01-15T18:49:02.959Z,21.33
2019-01-15T18:51:51.316Z,22.73
2019-01-15T18:54:56.808Z,23.17
2019-01-15T18:57:45.380Z,23.50
2019-01-15T19:00:38.385Z,19.70
2019-01-15T19:03:34.351Z,22.63
2019-01-15T19:06:24.111Z,20.17
2019-01-15T19:09:19.915Z,22.23
2019-01-15T19:12:11.951Z,22.43
2019-01-15T19:14:53.829Z,22.10
2019-01-15T19:17:46.903Z,22.80
2019-01-15T19:20:38.305Z,21.75
2019-01-15T19:23:26.937Z,23.97
2019-01-15T19:26:17.130Z,24.20
2019-01-15T19:28:59.068Z,23.27
2019-01-15T19:32:04.645Z,24.13
2019-01-15T19:34:49.406Z,25.25
2019-01-15T19:37:31.240Z,23.97
2019-01-15T19:40:25.152Z,25.63
2019-01-15T19:43:14.443Z,25.93
2019-01-15T19:46:04.472Z,23.80
2019-01-15T19:49:03.281Z,23.85
2019-01-15T19:52:03.540Z,24.93
2019-01-15T19:54:52.907Z,24.17
2019-01-15T19:57:42.756Z,22.30
2019-01-15T20:00:34.070Z,24.67
2019-01-15T20:03:27.186Z,25.30
2019-01-15T20:06:17.370Z,23.63
2019-01-15T20:09:06.305Z,24.97
2019-01-15T20:11:49.224Z,25.03
2019-01-15T20:14:45.570Z,23.62
2019-01-15T20:17:34.803Z,24.75
2019-01-15T20:20:25.321Z,24.20
2019-01-15T20:23:12.933Z,23.50
2019-01-15T20:26:02.924Z,23.77
2019-01-15T20:28:53.907Z,22.13
2019-01-15T20:31:43.230Z,24.10
2019-01-15T20:34:32.169Z,24.73
2019-01-15T20:37:35.717Z,24.47
2019-01-15T20:40:34.650Z,23.90
2019-01-15T20:43:27.427Z,22.50
2019-01-15T20:46:21.105Z,23.40
2019-01-15T20:49:13.895Z,24.70
2019-01-15T20:52:03.811Z,23.47
2019-01-15T20:54:41.970Z,22.43
2019-01-15T20:57:31.611Z,22.57
2019-01-15T21:00:21.707Z,23.20
2019-01-15T21:03:11.984Z,22.50
2019-01-15T21:06:01.411Z,22.77
2019-01-15T21:08:54.779Z,22.63
2019-01-15T21:26:43.587Z,22.00
2019-01-15T21:29:28.111Z,22.37
2019-01-15T21:38:41.009Z,22.47
2019-01-15T21:41:37.070Z,20.97
2019-01-15T21:44:30.384Z,20.88
2019-01-15T21:47:19.338Z,19.63
2019-01-15T21:50:08.612Z,21.63
2019-01-15T21:52:57.420Z,21.33
2019-01-15T21:55:46.301Z,19.73
2019-01-15T21:58:39.767Z,20.03
2019-01-15T22:01:39.118Z,19.80
2019-01-15T22:04:20.107Z,19.57
2019-01-15T22:07:09.314Z,20.90
2019-01-15T22:10:00.957Z,21.80
2019-01-15T22:12:56.949Z,20.82
2019-01-15T22:15:50.307Z,21.70
2019-01-15T22:18:39.496Z,20.23
2019-01-15T22:21:33.182Z,21.00
2019-01-15T22:24:21.780Z,21.10
2019-01-15T22:27:14.758Z,22.83
2019-01-15T22:30:03.519Z,22.77
2019-01-15T22:33:25.136Z,21.00
2019-01-15T22:36:27.026Z,23.47
2019-01-15T22:39:20.614Z,23.53
2019-01-15T22:42:09.399Z,24.33
2019-01-15T22:45:17.828Z,22.17
2019-01-15T22:48:06.813Z,24.60
2019-01-15T22:50:59.775Z,26.07
2019-01-15T22:53:59.846Z,24.75
2019-01-15T22:56:50.738Z,25.20
2019-01-15T22:59:54.361Z,25.20
2019-01-15T23:03:12.909Z,24.17
2019-01-15T23:06:11.645Z,24.50
2019-01-15T23:09:00.029Z,24.20
2019-01-15T23:11:42.863Z,24.37
2019-01-15T23:14:31.877Z,23.87
2019-01-15T23:17:19.339Z,21.62
2019-01-15T23:20:08.034Z,23.55
2019-01-15T23:23:01.555Z,23.87
2019-01-15T23:25:49.342Z,24.00
2019-01-15T23:28:39.343Z,23.87
2019-01-15T23:31:38.451Z,22.70
2019-01-15T23:34:28.519Z,20.60
2019-01-15T23:37:17.032Z,22.97
2019-01-15T23:40:06.131Z,22.90
2019-01-15T23:42:55.244Z,21.17
2019-01-15T23:45:39.452Z,21.53
2019-01-15T23:48:29.942Z,21.93
2019-01-15T23:51:38.095Z,23.33
2019-01-15T23:54:26.598Z,23.33
2019-01-15T23:57:22.406Z,22.73
